sensor_id;sensor_type;location;lat;lon;timestamp;pressure;altitude;pressure_sealevel;temperature;humidity
57024;BME280;42916;54.346;18.562;2023-06-22T00:01:20;100459.34;;;19.07;90.04
57024;BME280;42916;54.346;18.562;2023-06-22T00:03:49;100461.33;;;19.04;90.33
57024;BME280;42916;54.346;18.562;2023-06-22T00:06:16;100461.95;;;19.01;90.72
57024;BME280;42916;54.346;18.562;2023-06-22T00:08:42;100470.71;;;18.98;90.53
57024;BME280;42916;54.346;18.562;2023-06-22T00:11:10;100470.27;;;18.97;90.11
57024;BME280;42916;54.346;18.562;2023-06-22T00:13:37;100468.64;;;18.95;90.12
57024;BME280;42916;54.346;18.562;2023-06-22T00:16:05;100472.99;;;18.93;90.11
57024;BME280;42916;54.346;18.562;2023-06-22T00:18:32;100468.34;;;18.91;90.35
57024;BME280;42916;54.346;18.562;2023-06-22T00:20:59;100468.50;;;18.87;90.31
57024;BME280;42916;54.346;18.562;2023-06-22T00:23:26;100470.89;;;18.83;90.33
57024;BME280;42916;54.346;18.562;2023-06-22T00:25:53;100471.11;;;18.79;90.42
57024;BME280;42916;54.346;18.562;2023-06-22T00:28:20;100473.85;;;18.77;90.38
57024;BME280;42916;54.346;18.562;2023-06-22T00:30:48;100475.88;;;18.75;90.32
57024;BME280;42916;54.346;18.562;2023-06-22T00:33:16;100482.17;;;18.72;90.66
57024;BME280;42916;54.346;18.562;2023-06-22T00:35:43;100487.45;;;18.70;90.91
57024;BME280;42916;54.346;18.562;2023-06-22T00:38:10;100489.48;;;18.68;90.92
57024;BME280;42916;54.346;18.562;2023-06-22T00:40:38;100492.55;;;18.65;91.06
57024;BME280;42916;54.346;18.562;2023-06-22T00:43:05;100488.45;;;18.62;91.26
57024;BME280;42916;54.346;18.562;2023-06-22T00:45:32;100486.39;;;18.58;91.21
57024;BME280;42916;54.346;18.562;2023-06-22T00:48:00;100489.21;;;18.54;91.45
57024;BME280;42916;54.346;18.562;2023-06-22T00:50:30;100494.41;;;18.51;91.59
57024;BME280;42916;54.346;18.562;2023-06-22T00:53:06;100498.40;;;18.46;92.03
57024;BME280;42916;54.346;18.562;2023-06-22T00:55:41;100498.04;;;18.42;92.15
57024;BME280;42916;54.346;18.562;2023-06-22T00:58:09;100506.66;;;18.38;93.55
57024;BME280;42916;54.346;18.562;2023-06-22T01:00:39;100507.25;;;18.33;93.52
57024;BME280;42916;54.346;18.562;2023-06-22T01:03:06;100509.70;;;18.29;94.03
57024;BME280;42916;54.346;18.562;2023-06-22T01:05:37;100506.40;;;18.25;94.42
57024;BME280;42916;54.346;18.562;2023-06-22T01:08:28;100500.61;;;18.23;94.07
57024;BME280;42916;54.346;18.562;2023-06-22T01:14:00;100501.86;;;18.16;95.00
57024;BME280;42916;54.346;18.562;2023-06-22T01:16:31;100498.38;;;18.13;95.09
57024;BME280;42916;54.346;18.562;2023-06-22T01:19:12;100489.30;;;18.10;95.18
57024;BME280;42916;54.346;18.562;2023-06-22T01:21:40;100486.38;;;18.07;95.21
57024;BME280;42916;54.346;18.562;2023-06-22T01:24:23;100487.86;;;18.04;96.11
57024;BME280;42916;54.346;18.562;2023-06-22T01:29:33;100491.15;;;17.95;96.39
57024;BME280;42916;54.346;18.562;2023-06-22T01:32:02;100488.33;;;17.93;96.84
57024;BME280;42916;54.346;18.562;2023-06-22T01:34:31;100500.27;;;17.90;96.58
57024;BME280;42916;54.346;18.562;2023-06-22T01:37:01;100504.16;;;17.88;97.14
57024;BME280;42916;54.346;18.562;2023-06-22T01:39:30;100502.15;;;17.85;96.93
57024;BME280;42916;54.346;18.562;2023-06-22T01:41:58;100497.67;;;17.83;97.97
57024;BME280;42916;54.346;18.562;2023-06-22T01:44:26;100497.69;;;17.79;98.43
57024;BME280;42916;54.346;18.562;2023-06-22T01:46:54;100499.73;;;17.75;98.44
57024;BME280;42916;54.346;18.562;2023-06-22T01:49:22;100503.89;;;17.73;98.54
57024;BME280;42916;54.346;18.562;2023-06-22T01:51:49;100504.44;;;17.69;98.72
57024;BME280;42916;54.346;18.562;2023-06-22T01:54:16;100507.65;;;17.65;100.00
57024;BME280;42916;54.346;18.562;2023-06-22T01:56:43;100508.33;;;17.61;99.87
57024;BME280;42916;54.346;18.562;2023-06-22T01:59:29;100511.73;;;17.58;100.00
57024;BME280;42916;54.346;18.562;2023-06-22T02:02:07;100513.55;;;17.54;100.00
57024;BME280;42916;54.346;18.562;2023-06-22T02:04:47;100515.42;;;17.51;100.00
57024;BME280;42916;54.346;18.562;2023-06-22T02:07:17;100511.81;;;17.48;100.00
57024;BME280;42916;54.346;18.562;2023-06-22T02:09:46;100511.77;;;17.48;100.00
57024;BME280;42916;54.346;18.562;2023-06-22T02:12:18;100504.61;;;17.45;100.00
57024;BME280;42916;54.346;18.562;2023-06-22T02:14:48;100512.25;;;17.42;100.00
57024;BME280;42916;54.346;18.562;2023-06-22T02:17:17;100513.62;;;17.39;100.00
57024;BME280;42916;54.346;18.562;2023-06-22T02:19:44;100514.63;;;17.37;100.00
57024;BME280;42916;54.346;18.562;2023-06-22T02:22:11;100513.62;;;17.35;100.00
57024;BME280;42916;54.346;18.562;2023-06-22T02:24:39;100518.05;;;17.33;100.00
57024;BME280;42916;54.346;18.562;2023-06-22T02:27:06;100520.34;;;17.30;100.00
57024;BME280;42916;54.346;18.562;2023-06-22T02:29:33;100532.11;;;17.30;100.00
57024;BME280;42916;54.346;18.562;2023-06-22T02:32:00;100533.95;;;17.28;100.00
57024;BME280;42916;54.346;18.562;2023-06-22T02:34:27;100536.13;;;17.26;100.00
57024;BME280;42916;54.346;18.562;2023-06-22T02:36:54;100539.50;;;17.25;100.00
57024;BME280;42916;54.346;18.562;2023-06-22T02:39:23;100538.68;;;17.24;100.00
57024;BME280;42916;54.346;18.562;2023-06-22T02:41:52;100543.19;;;17.25;100.00
57024;BME280;42916;54.346;18.562;2023-06-22T02:44:19;100545.59;;;17.26;100.00
57024;BME280;42916;54.346;18.562;2023-06-22T02:46:48;100549.52;;;17.24;100.00
57024;BME280;42916;54.346;18.562;2023-06-22T02:49:16;100548.34;;;17.26;100.00
57024;BME280;42916;54.346;18.562;2023-06-22T02:51:48;100550.80;;;17.26;100.00
57024;BME280;42916;54.346;18.562;2023-06-22T02:54:17;100558.56;;;17.26;100.00
57024;BME280;42916;54.346;18.562;2023-06-22T02:56:45;100561.91;;;17.26;100.00
57024;BME280;42916;54.346;18.562;2023-06-22T02:59:12;100567.54;;;17.29;100.00
57024;BME280;42916;54.346;18.562;2023-06-22T03:01:39;100563.95;;;17.30;100.00
57024;BME280;42916;54.346;18.562;2023-06-22T03:04:10;100556.73;;;17.32;100.00
57024;BME280;42916;54.346;18.562;2023-06-22T03:06:37;100557.15;;;17.34;100.00
57024;BME280;42916;54.346;18.562;2023-06-22T03:09:07;100552.05;;;17.36;100.00
57024;BME280;42916;54.346;18.562;2023-06-22T03:11:35;100560.20;;;17.40;100.00
57024;BME280;42916;54.346;18.562;2023-06-22T03:14:03;100567.66;;;17.43;100.00
57024;BME280;42916;54.346;18.562;2023-06-22T03:16:29;100575.27;;;17.46;100.00
57024;BME280;42916;54.346;18.562;2023-06-22T03:18:57;100573.98;;;17.48;100.00
57024;BME280;42916;54.346;18.562;2023-06-22T03:21:28;100578.83;;;17.55;100.00
57024;BME280;42916;54.346;18.562;2023-06-22T03:23:55;100588.55;;;17.63;100.00
57024;BME280;42916;54.346;18.562;2023-06-22T03:26:22;100587.46;;;17.70;100.00
57024;BME280;42916;54.346;18.562;2023-06-22T03:28:51;100586.11;;;17.75;100.00
57024;BME280;42916;54.346;18.562;2023-06-22T03:31:18;100588.68;;;17.77;100.00
57024;BME280;42916;54.346;18.562;2023-06-22T03:33:48;100596.54;;;17.81;100.00
57024;BME280;42916;54.346;18.562;2023-06-22T03:36:17;100601.88;;;17.84;100.00
57024;BME280;42916;54.346;18.562;2023-06-22T03:38:50;100604.58;;;17.87;100.00
57024;BME280;42916;54.346;18.562;2023-06-22T03:41:17;100612.02;;;17.92;100.00
57024;BME280;42916;54.346;18.562;2023-06-22T03:43:44;100611.14;;;17.98;100.00
57024;BME280;42916;54.346;18.562;2023-06-22T03:46:11;100606.38;;;18.05;100.00
57024;BME280;42916;54.346;18.562;2023-06-22T03:48:38;100614.22;;;18.10;100.00
57024;BME280;42916;54.346;18.562;2023-06-22T03:51:05;100609.83;;;18.13;100.00
57024;BME280;42916;54.346;18.562;2023-06-22T03:53:32;100612.00;;;18.14;100.00
57024;BME280;42916;54.346;18.562;2023-06-22T03:55:59;100612.62;;;18.14;100.00
57024;BME280;42916;54.346;18.562;2023-06-22T03:58:26;100613.09;;;18.15;100.00
57024;BME280;42916;54.346;18.562;2023-06-22T04:00:53;100619.67;;;18.17;100.00
57024;BME280;42916;54.346;18.562;2023-06-22T04:03:20;100627.14;;;18.18;100.00
57024;BME280;42916;54.346;18.562;2023-06-22T04:05:47;100632.67;;;18.20;100.00
57024;BME280;42916;54.346;18.562;2023-06-22T04:08:15;100641.67;;;18.24;100.00
57024;BME280;42916;54.346;18.562;2023-06-22T04:10:42;100644.73;;;18.33;100.00
57024;BME280;42916;54.346;18.562;2023-06-22T04:13:09;100650.08;;;18.45;100.00
57024;BME280;42916;54.346;18.562;2023-06-22T04:15:36;100659.71;;;18.55;100.00
57024;BME280;42916;54.346;18.562;2023-06-22T04:18:03;100666.67;;;18.61;100.00
57024;BME280;42916;54.346;18.562;2023-06-22T04:20:31;100664.19;;;18.61;100.00
57024;BME280;42916;54.346;18.562;2023-06-22T04:22:58;100656.61;;;18.62;100.00
57024;BME280;42916;54.346;18.562;2023-06-22T04:25:25;100652.85;;;18.66;100.00
57024;BME280;42916;54.346;18.562;2023-06-22T04:27:52;100651.00;;;18.71;99.90
57024;BME280;42916;54.346;18.562;2023-06-22T04:30:18;100652.26;;;18.72;99.48
57024;BME280;42916;54.346;18.562;2023-06-22T04:32:45;100646.05;;;18.73;99.18
57024;BME280;42916;54.346;18.562;2023-06-22T04:35:22;100647.34;;;18.72;98.57
57024;BME280;42916;54.346;18.562;2023-06-22T04:37:49;100647.30;;;18.74;98.61
57024;BME280;42916;54.346;18.562;2023-06-22T04:40:16;100651.27;;;18.75;98.17
57024;BME280;42916;54.346;18.562;2023-06-22T04:42:43;100648.75;;;18.76;98.12
57024;BME280;42916;54.346;18.562;2023-06-22T04:45:19;100653.42;;;18.79;97.76
57024;BME280;42916;54.346;18.562;2023-06-22T04:47:46;100654.01;;;18.78;97.48
57024;BME280;42916;54.346;18.562;2023-06-22T04:50:14;100652.48;;;18.80;97.54
57024;BME280;42916;54.346;18.562;2023-06-22T04:52:41;100652.29;;;18.83;97.39
57024;BME280;42916;54.346;18.562;2023-06-22T04:55:08;100651.85;;;18.86;97.20
57024;BME280;42916;54.346;18.562;2023-06-22T04:57:35;100652.39;;;18.90;96.85
57024;BME280;42916;54.346;18.562;2023-06-22T05:00:06;100654.04;;;18.90;96.52
57024;BME280;42916;54.346;18.562;2023-06-22T05:02:39;100653.81;;;18.93;96.31
57024;BME280;42916;54.346;18.562;2023-06-22T05:05:07;100650.27;;;18.94;95.74
57024;BME280;42916;54.346;18.562;2023-06-22T05:07:34;100652.23;;;18.98;95.80
57024;BME280;42916;54.346;18.562;2023-06-22T05:10:04;100651.40;;;19.04;95.47
57024;BME280;42916;54.346;18.562;2023-06-22T05:12:31;100647.77;;;19.09;94.88
57024;BME280;42916;54.346;18.562;2023-06-22T05:14:58;100646.88;;;19.12;94.51
57024;BME280;42916;54.346;18.562;2023-06-22T05:17:25;100643.09;;;19.19;94.59
57024;BME280;42916;54.346;18.562;2023-06-22T05:19:52;100649.85;;;19.28;93.96
57024;BME280;42916;54.346;18.562;2023-06-22T05:22:19;100652.35;;;19.36;93.61
57024;BME280;42916;54.346;18.562;2023-06-22T05:24:46;100656.80;;;19.44;92.86
57024;BME280;42916;54.346;18.562;2023-06-22T05:27:14;100658.62;;;19.47;91.71
57024;BME280;42916;54.346;18.562;2023-06-22T05:29:41;100651.73;;;19.49;91.38
57024;BME280;42916;54.346;18.562;2023-06-22T05:32:09;100653.90;;;19.51;90.66
57024;BME280;42916;54.346;18.562;2023-06-22T05:34:36;100653.19;;;19.48;89.20
57024;BME280;42916;54.346;18.562;2023-06-22T05:37:03;100657.48;;;19.43;88.66
57024;BME280;42916;54.346;18.562;2023-06-22T05:39:30;100666.84;;;19.39;88.84
57024;BME280;42916;54.346;18.562;2023-06-22T05:41:57;100665.27;;;19.35;87.93
57024;BME280;42916;54.346;18.562;2023-06-22T05:44:24;100662.86;;;19.31;87.81
57024;BME280;42916;54.346;18.562;2023-06-22T05:46:51;100667.41;;;19.35;87.97
57024;BME280;42916;54.346;18.562;2023-06-22T05:49:18;100661.25;;;19.37;87.17
57024;BME280;42916;54.346;18.562;2023-06-22T05:51:45;100664.91;;;19.37;86.36
57024;BME280;42916;54.346;18.562;2023-06-22T05:54:12;100666.16;;;19.38;86.38
57024;BME280;42916;54.346;18.562;2023-06-22T05:56:40;100666.16;;;19.45;86.58
57024;BME280;42916;54.346;18.562;2023-06-22T05:59:07;100667.89;;;19.49;84.77
57024;BME280;42916;54.346;18.562;2023-06-22T06:01:34;100666.98;;;19.48;84.76
57024;BME280;42916;54.346;18.562;2023-06-22T06:04:03;100680.30;;;19.50;84.69
57024;BME280;42916;54.346;18.562;2023-06-22T06:06:30;100682.36;;;19.49;83.80
57024;BME280;42916;54.346;18.562;2023-06-22T06:08:59;100687.41;;;19.45;82.90
57024;BME280;42916;54.346;18.562;2023-06-22T06:11:26;100689.48;;;19.46;83.33
57024;BME280;42916;54.346;18.562;2023-06-22T06:13:53;100692.30;;;19.51;83.17
57024;BME280;42916;54.346;18.562;2023-06-22T06:16:20;100689.16;;;19.59;83.08
57024;BME280;42916;54.346;18.562;2023-06-22T06:18:47;100691.79;;;19.71;82.69
57024;BME280;42916;54.346;18.562;2023-06-22T06:21:16;100686.48;;;19.84;82.39
57024;BME280;42916;54.346;18.562;2023-06-22T06:23:43;100682.02;;;19.93;81.78
57024;BME280;42916;54.346;18.562;2023-06-22T06:26:10;100677.91;;;19.99;80.58
57024;BME280;42916;54.346;18.562;2023-06-22T06:28:37;100682.66;;;20.04;79.78
57024;BME280;42916;54.346;18.562;2023-06-22T06:31:03;100682.15;;;20.09;79.10
57024;BME280;42916;54.346;18.562;2023-06-22T06:33:33;100684.73;;;20.17;78.69
57024;BME280;42916;54.346;18.562;2023-06-22T06:36:00;100686.64;;;20.22;78.23
57024;BME280;42916;54.346;18.562;2023-06-22T06:38:30;100685.41;;;20.23;77.55
57024;BME280;42916;54.346;18.562;2023-06-22T06:40:58;100681.01;;;20.27;76.81
57024;BME280;42916;54.346;18.562;2023-06-22T06:43:25;100674.09;;;20.31;76.47
57024;BME280;42916;54.346;18.562;2023-06-22T06:45:52;100672.25;;;20.37;75.86
57024;BME280;42916;54.346;18.562;2023-06-22T06:48:19;100676.38;;;20.44;75.40
57024;BME280;42916;54.346;18.562;2023-06-22T06:50:46;100676.91;;;20.48;74.85
57024;BME280;42916;54.346;18.562;2023-06-22T06:53:14;100688.91;;;20.45;73.52
57024;BME280;42916;54.346;18.562;2023-06-22T06:55:40;100694.18;;;20.42;73.70
57024;BME280;42916;54.346;18.562;2023-06-22T06:58:07;100697.85;;;20.45;74.15
57024;BME280;42916;54.346;18.562;2023-06-22T07:00:36;100701.14;;;20.55;74.58
57024;BME280;42916;54.346;18.562;2023-06-22T07:03:04;100703.84;;;20.60;73.50
57024;BME280;42916;54.346;18.562;2023-06-22T07:05:31;100708.21;;;20.53;71.96
57024;BME280;42916;54.346;18.562;2023-06-22T07:07:58;100702.01;;;20.49;71.40
57024;BME280;42916;54.346;18.562;2023-06-22T07:10:26;100709.64;;;20.47;70.91
57024;BME280;42916;54.346;18.562;2023-06-22T07:12:53;100713.48;;;20.45;70.43
57024;BME280;42916;54.346;18.562;2023-06-22T07:15:20;100713.55;;;20.48;70.96
57024;BME280;42916;54.346;18.562;2023-06-22T07:17:47;100707.79;;;20.57;71.11
57024;BME280;42916;54.346;18.562;2023-06-22T07:20:13;100699.36;;;20.66;71.03
57024;BME280;42916;54.346;18.562;2023-06-22T07:22:43;100699.17;;;20.78;71.14
57024;BME280;42916;54.346;18.562;2023-06-22T07:25:11;100702.34;;;20.89;70.81
57024;BME280;42916;54.346;18.562;2023-06-22T07:30:12;100702.05;;;21.06;70.27
57024;BME280;42916;54.346;18.562;2023-06-22T07:32:40;100706.78;;;21.18;69.18
57024;BME280;42916;54.346;18.562;2023-06-22T07:35:08;100712.03;;;21.25;68.34
57024;BME280;42916;54.346;18.562;2023-06-22T07:37:35;100719.48;;;21.34;66.74
57024;BME280;42916;54.346;18.562;2023-06-22T07:40:02;100718.02;;;21.35;65.14
57024;BME280;42916;54.346;18.562;2023-06-22T07:42:32;100719.33;;;21.37;65.05
57024;BME280;42916;54.346;18.562;2023-06-22T07:45:00;100721.74;;;21.38;63.88
57024;BME280;42916;54.346;18.562;2023-06-22T07:47:27;100724.91;;;21.41;64.19
57024;BME280;42916;54.346;18.562;2023-06-22T07:49:55;100724.16;;;21.42;63.44
57024;BME280;42916;54.346;18.562;2023-06-22T07:52:24;100722.44;;;21.42;62.19
57024;BME280;42916;54.346;18.562;2023-06-22T07:54:52;100720.21;;;21.45;62.56
57024;BME280;42916;54.346;18.562;2023-06-22T07:57:20;100720.33;;;21.54;62.75
57024;BME280;42916;54.346;18.562;2023-06-22T07:59:47;100732.46;;;21.63;62.31
57024;BME280;42916;54.346;18.562;2023-06-22T08:02:14;100734.41;;;21.62;62.40
57024;BME280;42916;54.346;18.562;2023-06-22T08:04:41;100734.16;;;21.67;62.30
57024;BME280;42916;54.346;18.562;2023-06-22T08:07:08;100740.47;;;21.73;61.92
57024;BME280;42916;54.346;18.562;2023-06-22T08:09:36;100735.11;;;21.80;60.76
57024;BME280;42916;54.346;18.562;2023-06-22T08:12:03;100737.66;;;21.91;61.14
57024;BME280;42916;54.346;18.562;2023-06-22T08:14:30;100739.51;;;22.03;59.03
57024;BME280;42916;54.346;18.562;2023-06-22T08:16:57;100744.14;;;22.11;60.27
57024;BME280;42916;54.346;18.562;2023-06-22T08:19:24;100738.13;;;22.16;59.83
57024;BME280;42916;54.346;18.562;2023-06-22T08:21:51;100733.67;;;22.16;59.27
57024;BME280;42916;54.346;18.562;2023-06-22T08:24:18;100733.31;;;22.13;59.89
57024;BME280;42916;54.346;18.562;2023-06-22T08:26:45;100737.48;;;22.22;60.24
57024;BME280;42916;54.346;18.562;2023-06-22T08:29:12;100741.55;;;22.25;58.10
57024;BME280;42916;54.346;18.562;2023-06-22T08:31:39;100744.27;;;22.17;57.74
57024;BME280;42916;54.346;18.562;2023-06-22T08:34:06;100739.77;;;22.11;57.83
57024;BME280;42916;54.346;18.562;2023-06-22T08:36:33;100742.54;;;22.06;57.76
57024;BME280;42916;54.346;18.562;2023-06-22T08:39:07;100739.30;;;21.99;58.40
57024;BME280;42916;54.346;18.562;2023-06-22T08:41:34;100735.08;;;22.10;59.45
57024;BME280;42916;54.346;18.562;2023-06-22T08:44:01;100735.02;;;22.19;58.92
57024;BME280;42916;54.346;18.562;2023-06-22T08:46:29;100735.98;;;22.20;58.13
57024;BME280;42916;54.346;18.562;2023-06-22T08:49:00;100738.36;;;22.18;58.20
57024;BME280;42916;54.346;18.562;2023-06-22T08:51:27;100741.11;;;22.23;58.75
57024;BME280;42916;54.346;18.562;2023-06-22T08:53:55;100743.30;;;22.32;59.13
57024;BME280;42916;54.346;18.562;2023-06-22T08:56:22;100739.77;;;22.36;59.16
57024;BME280;42916;54.346;18.562;2023-06-22T08:58:49;100740.03;;;22.40;58.16
57024;BME280;42916;54.346;18.562;2023-06-22T09:01:16;100745.31;;;22.42;55.34
57024;BME280;42916;54.346;18.562;2023-06-22T09:03:43;100742.30;;;22.44;55.48
57024;BME280;42916;54.346;18.562;2023-06-22T09:06:10;100745.11;;;22.51;55.65
57024;BME280;42916;54.346;18.562;2023-06-22T09:08:37;100740.25;;;22.54;55.17
57024;BME280;42916;54.346;18.562;2023-06-22T09:11:04;100738.02;;;22.56;55.56
57024;BME280;42916;54.346;18.562;2023-06-22T09:13:32;100730.38;;;22.64;55.49
57024;BME280;42916;54.346;18.562;2023-06-22T09:15:59;100731.32;;;22.66;54.72
57024;BME280;42916;54.346;18.562;2023-06-22T09:18:26;100735.16;;;22.68;55.50
57024;BME280;42916;54.346;18.562;2023-06-22T09:20:53;100740.31;;;22.75;55.13
57024;BME280;42916;54.346;18.562;2023-06-22T09:23:20;100730.37;;;22.82;55.36
57024;BME280;42916;54.346;18.562;2023-06-22T09:25:47;100733.74;;;22.87;52.72
57024;BME280;42916;54.346;18.562;2023-06-22T09:28:14;100735.67;;;22.91;52.41
57024;BME280;42916;54.346;18.562;2023-06-22T09:30:45;100745.29;;;22.93;51.68
57024;BME280;42916;54.346;18.562;2023-06-22T09:33:12;100740.80;;;22.98;51.90
57024;BME280;42916;54.346;18.562;2023-06-22T09:35:39;100742.66;;;23.08;52.11
57024;BME280;42916;54.346;18.562;2023-06-22T09:38:05;100738.63;;;23.13;51.68
57024;BME280;42916;54.346;18.562;2023-06-22T09:40:32;100739.23;;;23.17;50.99
57024;BME280;42916;54.346;18.562;2023-06-22T09:43:02;100729.50;;;23.17;51.31
57024;BME280;42916;54.346;18.562;2023-06-22T09:45:29;100730.20;;;23.19;51.15
57024;BME280;42916;54.346;18.562;2023-06-22T09:47:56;100729.20;;;23.20;51.28
57024;BME280;42916;54.346;18.562;2023-06-22T09:50:23;100734.42;;;23.21;50.06
57024;BME280;42916;54.346;18.562;2023-06-22T09:52:50;100734.66;;;23.17;49.85
57024;BME280;42916;54.346;18.562;2023-06-22T09:55:22;100735.02;;;23.16;50.96
57024;BME280;42916;54.346;18.562;2023-06-22T09:57:49;100733.97;;;23.27;51.38
57024;BME280;42916;54.346;18.562;2023-06-22T10:00:17;100726.51;;;23.39;51.68
57024;BME280;42916;54.346;18.562;2023-06-22T10:02:46;100728.59;;;23.53;51.64
57024;BME280;42916;54.346;18.562;2023-06-22T10:05:13;100732.27;;;23.62;50.64
57024;BME280;42916;54.346;18.562;2023-06-22T10:07:40;100735.96;;;23.65;49.79
57024;BME280;42916;54.346;18.562;2023-06-22T10:10:10;100734.69;;;23.66;49.72
57024;BME280;42916;54.346;18.562;2023-06-22T10:12:42;100736.02;;;23.73;49.87
57024;BME280;42916;54.346;18.562;2023-06-22T10:15:10;100731.29;;;23.85;49.86
57024;BME280;42916;54.346;18.562;2023-06-22T10:17:38;100730.83;;;24.00;49.95
57024;BME280;42916;54.346;18.562;2023-06-22T10:20:06;100735.29;;;24.15;48.86
57024;BME280;42916;54.346;18.562;2023-06-22T10:22:44;100735.33;;;24.18;48.79
57024;BME280;42916;54.346;18.562;2023-06-22T10:25:12;100736.13;;;24.35;49.32
57024;BME280;42916;54.346;18.562;2023-06-22T10:27:39;100731.31;;;24.56;49.10
57024;BME280;42916;54.346;18.562;2023-06-22T10:30:07;100730.89;;;24.74;48.52
57024;BME280;42916;54.346;18.562;2023-06-22T10:32:34;100732.09;;;24.75;47.49
57024;BME280;42916;54.346;18.562;2023-06-22T10:35:01;100734.73;;;24.78;47.60
57024;BME280;42916;54.346;18.562;2023-06-22T10:37:28;100731.93;;;24.89;48.34
57024;BME280;42916;54.346;18.562;2023-06-22T10:39:55;100742.17;;;25.07;47.48
57024;BME280;42916;54.346;18.562;2023-06-22T10:42:22;100732.30;;;25.23;47.57
57024;BME280;42916;54.346;18.562;2023-06-22T10:44:49;100722.55;;;25.45;47.44
57024;BME280;42916;54.346;18.562;2023-06-22T10:47:16;100729.55;;;25.70;47.10
57024;BME280;42916;54.346;18.562;2023-06-22T10:49:42;100735.80;;;25.77;45.48
57024;BME280;42916;54.346;18.562;2023-06-22T10:52:09;100733.39;;;25.61;45.17
57024;BME280;42916;54.346;18.562;2023-06-22T10:54:37;100735.84;;;25.65;45.66
57024;BME280;42916;54.346;18.562;2023-06-22T10:57:04;100731.46;;;25.83;45.22
57024;BME280;42916;54.346;18.562;2023-06-22T10:59:31;100722.06;;;25.93;45.52
57024;BME280;42916;54.346;18.562;2023-06-22T11:01:58;100725.45;;;25.92;43.85
57024;BME280;42916;54.346;18.562;2023-06-22T11:04:25;100730.81;;;25.80;44.48
57024;BME280;42916;54.346;18.562;2023-06-22T11:06:52;100730.50;;;25.72;44.32
57024;BME280;42916;54.346;18.562;2023-06-22T11:09:19;100728.58;;;25.80;43.63
57024;BME280;42916;54.346;18.562;2023-06-22T11:11:50;100721.89;;;25.85;44.15
57024;BME280;42916;54.346;18.562;2023-06-22T11:14:20;100722.61;;;25.83;43.88
57024;BME280;42916;54.346;18.562;2023-06-22T11:16:48;100720.10;;;25.79;42.68
57024;BME280;42916;54.346;18.562;2023-06-22T11:19:14;100718.98;;;25.91;43.26
57024;BME280;42916;54.346;18.562;2023-06-22T11:21:41;100714.10;;;26.20;42.23
57024;BME280;42916;54.346;18.562;2023-06-22T11:24:08;100718.54;;;26.30;41.91
57024;BME280;42916;54.346;18.562;2023-06-22T11:26:35;100722.87;;;26.54;42.19
57024;BME280;42916;54.346;18.562;2023-06-22T11:29:03;100712.56;;;26.76;41.76
57024;BME280;42916;54.346;18.562;2023-06-22T11:31:34;100711.93;;;26.95;40.89
57024;BME280;42916;54.346;18.562;2023-06-22T11:34:01;100708.63;;;26.96;40.07
57024;BME280;42916;54.346;18.562;2023-06-22T11:36:29;100710.84;;;26.98;40.29
57024;BME280;42916;54.346;18.562;2023-06-22T11:38:59;100716.46;;;27.16;39.81
57024;BME280;42916;54.346;18.562;2023-06-22T11:41:26;100715.92;;;27.32;40.15
57024;BME280;42916;54.346;18.562;2023-06-22T11:43:53;100714.88;;;27.59;40.12
57024;BME280;42916;54.346;18.562;2023-06-22T11:46:20;100716.79;;;27.76;39.43
57024;BME280;42916;54.346;18.562;2023-06-22T11:48:47;100722.64;;;27.73;37.72
57024;BME280;42916;54.346;18.562;2023-06-22T11:51:13;100716.87;;;27.52;36.55
57024;BME280;42916;54.346;18.562;2023-06-22T11:53:43;100712.17;;;27.49;36.88
57024;BME280;42916;54.346;18.562;2023-06-22T11:56:11;100709.87;;;27.56;37.40
57024;BME280;42916;54.346;18.562;2023-06-22T11:58:51;100716.84;;;27.68;37.10
57024;BME280;42916;54.346;18.562;2023-06-22T12:01:18;100717.83;;;27.80;37.61
57024;BME280;42916;54.346;18.562;2023-06-22T12:03:46;100713.02;;;28.07;36.66
57024;BME280;42916;54.346;18.562;2023-06-22T12:06:12;100711.40;;;28.21;36.47
57024;BME280;42916;54.346;18.562;2023-06-22T12:08:39;100710.31;;;28.43;36.65
57024;BME280;42916;54.346;18.562;2023-06-22T12:11:06;100712.11;;;28.86;36.72
57024;BME280;42916;54.346;18.562;2023-06-22T12:13:33;100712.70;;;29.24;36.32
57024;BME280;42916;54.346;18.562;2023-06-22T12:16:00;100711.25;;;29.54;35.20
57024;BME280;42916;54.346;18.562;2023-06-22T12:18:26;100706.49;;;29.47;34.89
57024;BME280;42916;54.346;18.562;2023-06-22T12:20:53;100705.61;;;29.07;34.57
57024;BME280;42916;54.346;18.562;2023-06-22T12:23:20;100701.40;;;28.53;34.95
57024;BME280;42916;54.346;18.562;2023-06-22T12:25:47;100697.00;;;28.56;35.71
57024;BME280;42916;54.346;18.562;2023-06-22T12:28:14;100689.08;;;28.82;35.51
57024;BME280;42916;54.346;18.562;2023-06-22T12:30:41;100694.05;;;28.74;35.71
57024;BME280;42916;54.346;18.562;2023-06-22T12:33:08;100695.91;;;28.93;35.82
57024;BME280;42916;54.346;18.562;2023-06-22T12:35:35;100698.81;;;29.22;35.62
57024;BME280;42916;54.346;18.562;2023-06-22T12:38:02;100691.90;;;29.51;35.71
57024;BME280;42916;54.346;18.562;2023-06-22T12:40:29;100698.14;;;29.84;36.71
57024;BME280;42916;54.346;18.562;2023-06-22T12:42:56;100697.26;;;30.21;37.43
57024;BME280;42916;54.346;18.562;2023-06-22T12:45:23;100707.58;;;30.25;37.13
57024;BME280;42916;54.346;18.562;2023-06-22T12:47:51;100696.96;;;30.42;38.02
57024;BME280;42916;54.346;18.562;2023-06-22T12:50:18;100692.63;;;30.88;37.82